Terminal Aerodrome Forecast
Issued by NWS Cleveland, OH

Home | Current Version | Previous Version | Text Only | Print | Product List | Glossary Off
Versions: 1 2 3 4 5 6 7 8 9 10 11 12 13 14 15 16 17 18 19 20 21 22 23 24 25 26 27 28

633
FTUS41 KCLE 240524
TAFCLE
TAF
KCLE 240524Z 2406/2512 12008KT P6SM OVC150
     FM241200 12008KT P6SM OVC070
     FM241900 10010KT P6SM -SHRA OVC040
     FM242200 10012G20KT 5SM -SHRA OVC025
     FM250100 08012G20KT 3SM -SHRA OVC015=

USA.gov is the U.S. government's official web portal to all federal, state and local government web resources and services.